createdAt,value
2017-06-24T00:00:06.333Z,100862.22
2017-06-24T00:02:38.730Z,100856.78
2017-06-24T00:05:11.436Z,100865.42
2017-06-24T00:07:44.404Z,100866.77
2017-06-24T00:10:18.474Z,100863.70
2017-06-24T00:12:51.251Z,100860.48
2017-06-24T00:15:25.565Z,100854.51
2017-06-24T00:17:58.621Z,100852.50
2017-06-24T00:20:31.274Z,100850.36
2017-06-24T00:23:12.894Z,100861.17
2017-06-24T00:25:45.835Z,100859.55
2017-06-24T00:28:35.426Z,100852.73
2017-06-24T00:31:08.690Z,100856.60
2017-06-24T00:37:12.138Z,100852.88
2017-06-24T00:39:44.447Z,100861.30
2017-06-24T00:42:18.113Z,100853.73
2017-06-24T00:44:57.504Z,100861.84
2017-06-24T00:47:30.902Z,100858.16
2017-06-24T00:50:03.416Z,100856.11
2017-06-24T00:52:36.464Z,100862.22
2017-06-24T00:55:09.576Z,100867.28
2017-06-24T00:57:42.860Z,100859.51
2017-06-24T01:00:15.240Z,100855.74
2017-06-24T01:02:54.654Z,100862.70
2017-06-24T01:05:32.790Z,100851.84
2017-06-24T01:08:16.763Z,100851.77
2017-06-24T01:10:52.289Z,100851.73
2017-06-24T01:13:25.973Z,100866.33
2017-06-24T01:19:00.987Z,100854.69
2017-06-24T01:21:36.354Z,100860.63
2017-06-24T01:24:16.094Z,100868.68
2017-06-24T01:26:56.002Z,100861.45
2017-06-24T01:33:26.359Z,100858.38
2017-06-24T01:36:12.700Z,100864.31
2017-06-24T01:38:52.000Z,100856.41
2017-06-24T01:41:34.680Z,100857.86
2017-06-24T01:47:11.901Z,100857.00
2017-06-24T01:58:38.878Z,100864.23
2017-06-24T02:01:29.627Z,100862.75
2017-06-24T02:09:40.136Z,100851.78
2017-06-24T02:12:13.762Z,100851.88
2017-06-24T02:14:46.992Z,100851.48
2017-06-24T02:31:25.034Z,100845.67
2017-06-24T02:33:51.381Z,100838.15
2017-06-24T02:36:17.776Z,100846.94
2017-06-24T02:38:44.140Z,100838.27
2017-06-24T02:41:10.468Z,100841.88
2017-06-24T02:43:36.786Z,100839.61
2017-06-24T02:46:03.158Z,100832.91
2017-06-24T02:48:29.516Z,100837.26
2017-06-24T02:50:55.904Z,100837.71
2017-06-24T02:53:22.243Z,100836.02
2017-06-24T02:55:48.691Z,100831.14
2017-06-24T02:58:15.013Z,100830.02
2017-06-24T03:00:41.337Z,100826.61
2017-06-24T03:03:07.654Z,100827.52
2017-06-24T03:05:33.972Z,100824.33
2017-06-24T03:08:00.339Z,100820.27
2017-06-24T03:10:26.666Z,100831.22
2017-06-24T03:12:52.996Z,100821.69
2017-06-24T03:15:19.343Z,100824.88
2017-06-24T03:17:45.684Z,100828.03
2017-06-24T03:20:12.014Z,100820.34
2017-06-24T03:22:38.319Z,100818.37
2017-06-24T03:25:04.729Z,100809.72
2017-06-24T03:27:31.026Z,100809.89
2017-06-24T03:29:58.245Z,100801.49
2017-06-24T03:32:24.567Z,100803.81
2017-06-24T03:34:50.862Z,100796.58
2017-06-24T03:37:17.220Z,100798.80
2017-06-24T03:39:43.888Z,100789.91
2017-06-24T03:42:10.258Z,100789.58
2017-06-24T03:44:36.630Z,100788.72
2017-06-24T03:47:02.972Z,100789.56
2017-06-24T03:49:29.265Z,100794.55
2017-06-24T03:51:55.655Z,100787.18
2017-06-24T03:54:21.989Z,100788.23
2017-06-24T03:56:48.308Z,100787.47
2017-06-24T03:59:14.672Z,100797.49
2017-06-24T04:01:41.096Z,100801.97
2017-06-24T04:04:07.418Z,100801.95
2017-06-24T04:06:33.717Z,100802.06
2017-06-24T04:09:00.063Z,100796.13
2017-06-24T04:11:26.419Z,100796.77
2017-06-24T04:13:52.750Z,100793.48
2017-06-24T04:16:19.065Z,100801.77
2017-06-24T04:18:45.395Z,100805.50
2017-06-24T04:21:11.715Z,100802.70
2017-06-24T04:23:38.061Z,100806.26
2017-06-24T04:26:04.398Z,100791.68
2017-06-24T04:28:30.710Z,100802.56
2017-06-24T04:30:57.057Z,100786.90
2017-06-24T04:33:23.447Z,100781.98
2017-06-24T04:35:49.897Z,100785.70
2017-06-24T04:38:16.254Z,100776.89
2017-06-24T04:40:42.618Z,100784.23
2017-06-24T04:43:08.983Z,100784.56
2017-06-24T04:45:35.310Z,100789.82
2017-06-24T04:48:01.611Z,100785.71
2017-06-24T04:50:27.973Z,100783.81
2017-06-24T04:52:54.351Z,100789.16
2017-06-24T04:55:20.678Z,100796.82
2017-06-24T04:57:47.013Z,100788.31
2017-06-24T05:00:13.360Z,100776.59
2017-06-24T05:02:39.689Z,100780.58
2017-06-24T05:05:06.048Z,100781.88
2017-06-24T05:07:32.424Z,100778.23
2017-06-24T05:09:58.724Z,100777.17
2017-06-24T05:12:25.167Z,100779.47
2017-06-24T05:14:51.509Z,100787.14
2017-06-24T05:17:17.841Z,100772.73
2017-06-24T05:19:44.166Z,100773.81
2017-06-24T05:22:10.487Z,100761.16
2017-06-24T05:24:36.834Z,100766.64
2017-06-24T05:27:03.160Z,100763.81
2017-06-24T05:29:29.484Z,100760.47
2017-06-24T05:31:55.825Z,100763.69
2017-06-24T05:34:22.181Z,100770.89
2017-06-24T05:36:48.588Z,100764.72
2017-06-24T05:39:16.848Z,100766.23
2017-06-24T05:41:43.168Z,100768.59
2017-06-24T05:44:09.540Z,100768.46
2017-06-24T05:46:35.881Z,100767.93
2017-06-24T05:49:02.210Z,100772.44
2017-06-24T05:51:28.538Z,100777.64
2017-06-24T05:53:54.871Z,100771.30
2017-06-24T05:56:22.911Z,100783.67
2017-06-24T05:58:50.743Z,100779.30
2017-06-24T06:01:17.226Z,100773.12
2017-06-24T06:03:43.577Z,100773.20
2017-06-24T06:06:09.905Z,100767.89
2017-06-24T06:08:36.319Z,100760.58
2017-06-24T06:11:02.622Z,100761.36
2017-06-24T06:13:28.953Z,100763.77
2017-06-24T06:15:55.302Z,100759.25
2017-06-24T06:18:21.627Z,100758.71
2017-06-24T06:20:47.965Z,100761.20
2017-06-24T06:23:14.305Z,100763.08
2017-06-24T06:25:40.655Z,100762.80
2017-06-24T06:28:07.024Z,100762.08
2017-06-24T06:30:33.354Z,100771.89
2017-06-24T06:32:59.690Z,100770.78
2017-06-24T06:35:26.018Z,100767.86
2017-06-24T06:37:52.371Z,100767.47
2017-06-24T06:40:18.701Z,100767.81
2017-06-24T06:42:45.036Z,100771.75
2017-06-24T06:45:11.375Z,100781.26
2017-06-24T06:47:37.698Z,100776.95
2017-06-24T06:50:11.813Z,100785.47
2017-06-24T06:52:45.178Z,100776.38
2017-06-24T06:55:18.811Z,100776.28
2017-06-24T07:00:37.631Z,100776.29
2017-06-24T07:03:10.436Z,100780.73
2017-06-24T07:05:40.893Z,100766.41
2017-06-24T07:08:27.434Z,100763.91
2017-06-24T07:10:57.614Z,100770.11
2017-06-24T07:13:30.746Z,100764.25
2017-06-24T07:16:03.487Z,100763.77
2017-06-24T10:54:11.537Z,100741.86
2017-06-24T10:59:57.221Z,100747.39
2017-06-24T11:02:34.117Z,100752.58
2017-06-24T11:05:13.456Z,100745.85
2017-06-24T11:10:40.264Z,100751.23
2017-06-24T11:16:20.641Z,100754.33
2017-06-24T11:19:08.187Z,100763.30
2017-06-24T11:21:51.227Z,100763.28
2017-06-24T11:30:20.512Z,100769.30
2017-06-24T11:35:59.890Z,100768.87
2017-06-24T11:38:39.998Z,100780.98
2017-06-24T11:44:21.003Z,100772.46
2017-06-24T11:46:58.584Z,100782.87
2017-06-24T11:49:45.193Z,100788.63
2017-06-24T11:52:26.142Z,100782.22
2017-06-24T11:55:16.054Z,100787.77
2017-06-24T11:57:57.464Z,100787.48
2017-06-24T12:03:30.029Z,100790.63
2017-06-24T12:08:59.265Z,100792.46
2017-06-24T12:11:33.073Z,100782.97
2017-06-24T12:17:01.528Z,100783.13
2017-06-24T12:19:40.276Z,100781.68
2017-06-24T12:28:11.346Z,100777.47
2017-06-24T12:39:41.996Z,100774.94
2017-06-24T12:42:25.957Z,100772.05
2017-06-24T12:45:12.911Z,100761.40
2017-06-24T12:50:40.562Z,100765.02
2017-06-24T12:53:15.606Z,100768.77
2017-06-24T12:56:05.839Z,100758.55
2017-06-24T12:58:56.027Z,100760.15
2017-06-24T13:01:31.090Z,100766.63
2017-06-24T13:18:21.080Z,100774.34
2017-06-24T13:20:47.420Z,100771.28
2017-06-24T13:23:13.807Z,100778.30
2017-06-24T13:25:40.188Z,100777.73
2017-06-24T13:28:06.532Z,100772.59
2017-06-24T13:30:32.891Z,100781.50
2017-06-24T13:32:59.252Z,100780.28
2017-06-24T13:35:25.740Z,100775.63
2017-06-24T13:37:52.091Z,100762.75
2017-06-24T13:40:18.500Z,100759.05
2017-06-24T13:42:44.859Z,100755.02
2017-06-24T13:45:11.246Z,100753.80
2017-06-24T13:47:37.599Z,100762.75
2017-06-24T13:50:03.958Z,100760.93
2017-06-24T13:52:30.323Z,100761.75
2017-06-24T13:54:56.752Z,100761.55
2017-06-24T13:57:23.107Z,100762.28
2017-06-24T13:59:49.492Z,100764.02
2017-06-24T14:02:15.858Z,100766.69
2017-06-24T14:04:42.210Z,100769.38
2017-06-24T14:07:08.553Z,100761.87
2017-06-24T14:09:34.910Z,100764.47
2017-06-24T14:12:01.283Z,100757.12
2017-06-24T14:14:27.636Z,100758.38
2017-06-24T14:16:54.033Z,100752.25
2017-06-24T14:19:20.364Z,100755.03
2017-06-24T14:21:46.821Z,100748.31
2017-06-24T14:24:13.189Z,100753.70
2017-06-24T14:26:39.540Z,100751.34
2017-06-24T14:29:05.902Z,100748.26
2017-06-24T14:31:32.281Z,100741.34
2017-06-24T14:33:58.736Z,100748.43
2017-06-24T14:36:25.128Z,100745.19
2017-06-24T14:38:51.543Z,100743.80
2017-06-24T14:41:18.472Z,100746.96
2017-06-24T14:43:44.939Z,100742.19
2017-06-24T14:46:11.736Z,100748.48
2017-06-24T14:48:38.109Z,100746.33
2017-06-24T14:51:04.795Z,100739.23
2017-06-24T14:53:31.140Z,100738.33
2017-06-24T14:55:57.529Z,100737.57
2017-06-24T14:58:24.668Z,100741.54
2017-06-24T15:00:51.045Z,100744.08
2017-06-24T15:03:17.399Z,100737.09
2017-06-24T15:05:43.854Z,100740.41
2017-06-24T15:08:10.531Z,100734.76
2017-06-24T15:10:36.890Z,100731.16
2017-06-24T15:13:03.283Z,100733.47
2017-06-24T15:15:29.693Z,100726.32
2017-06-24T15:17:56.057Z,100724.87
2017-06-24T15:20:22.427Z,100723.03
2017-06-24T15:22:48.820Z,100728.08
2017-06-24T15:25:15.164Z,100721.23
2017-06-24T15:27:41.537Z,100721.47
2017-06-24T15:30:07.897Z,100719.64
2017-06-24T15:32:34.307Z,100713.55
2017-06-24T15:35:00.682Z,100718.40
2017-06-24T15:37:27.116Z,100716.16
2017-06-24T15:39:53.496Z,100714.20
2017-06-24T15:42:20.042Z,100714.10
2017-06-24T15:44:46.417Z,100706.62
2017-06-24T15:47:12.781Z,100707.13
2017-06-24T15:49:39.195Z,100708.23
2017-06-24T15:52:05.668Z,100701.62
2017-06-24T15:54:32.056Z,100699.66
2017-06-24T15:56:59.044Z,100694.28
2017-06-24T15:59:25.738Z,100693.80
2017-06-24T16:01:52.101Z,100698.86
2017-06-24T16:04:18.462Z,100697.70
2017-06-24T16:06:44.874Z,100699.13
2017-06-24T16:09:11.235Z,100697.63
2017-06-24T16:11:37.610Z,100695.80
2017-06-24T16:14:03.973Z,100695.42
2017-06-24T16:16:30.332Z,100690.86
2017-06-24T16:18:56.701Z,100693.95
2017-06-24T16:21:23.053Z,100692.26
2017-06-24T16:23:49.602Z,100691.80
2017-06-24T16:26:16.507Z,100692.91
2017-06-24T16:28:42.894Z,100694.37
2017-06-24T16:31:09.297Z,100683.39
2017-06-24T16:33:35.740Z,100686.62
2017-06-24T16:36:02.088Z,100679.54
2017-06-24T16:38:28.444Z,100679.54
2017-06-24T16:40:54.859Z,100680.41
2017-06-24T16:43:21.252Z,100683.95
2017-06-24T16:46:00.272Z,100684.78
2017-06-24T16:48:32.855Z,100682.41
2017-06-24T16:51:05.250Z,100681.87
2017-06-24T16:53:32.125Z,100682.01
2017-06-24T16:55:58.501Z,100680.27
2017-06-24T16:58:24.890Z,100677.87
2017-06-24T17:00:51.273Z,100682.07
2017-06-24T17:06:09.788Z,100682.23
2017-06-24T17:08:36.845Z,100682.36
2017-06-24T17:11:03.153Z,100681.41
2017-06-24T17:13:29.866Z,100677.98
2017-06-24T17:15:56.265Z,100677.72
2017-06-24T17:18:22.648Z,100669.22
2017-06-24T17:20:49.845Z,100680.25
2017-06-24T17:23:16.245Z,100673.30
2017-06-24T17:25:42.565Z,100678.35
2017-06-24T17:28:09.111Z,100681.05
2017-06-24T17:30:35.443Z,100673.98
2017-06-24T17:33:17.163Z,100670.88
2017-06-24T17:35:43.476Z,100676.88
2017-06-24T17:38:09.867Z,100670.61
2017-06-24T17:40:36.193Z,100667.41
2017-06-24T17:43:02.528Z,100670.30
2017-06-24T17:45:28.844Z,100667.87
2017-06-24T17:47:55.264Z,100663.77
2017-06-24T17:50:21.621Z,100661.28
2017-06-24T17:52:48.139Z,100661.48
2017-06-24T17:55:14.437Z,100663.25
2017-06-24T17:57:40.880Z,100667.41
2017-06-24T18:00:07.239Z,100669.27
2017-06-24T18:02:33.574Z,100662.67
2017-06-24T18:04:59.914Z,100655.77
2017-06-24T18:07:26.252Z,100645.25
2017-06-24T18:09:52.598Z,100648.59
2017-06-24T18:12:18.998Z,100656.98
2017-06-24T18:14:46.087Z,100646.27
2017-06-24T18:17:12.394Z,100646.50
2017-06-24T18:19:38.751Z,100658.70
2017-06-24T18:22:05.068Z,100651.13
2017-06-24T18:24:31.380Z,100649.73
2017-06-24T18:26:57.718Z,100660.16
2017-06-24T18:29:24.065Z,100657.71
2017-06-24T18:31:50.412Z,100658.02
2017-06-24T18:34:16.796Z,100655.88
2017-06-24T18:36:43.114Z,100670.46
2017-06-24T18:39:09.442Z,100655.22
2017-06-24T18:41:35.788Z,100659.51
2017-06-24T18:44:02.152Z,100664.06
2017-06-24T18:46:28.461Z,100660.16
2017-06-24T18:48:54.792Z,100656.99
2017-06-24T18:51:21.132Z,100651.01
2017-06-24T18:53:47.510Z,100647.09
2017-06-24T18:56:13.841Z,100659.81
2017-06-24T18:58:40.157Z,100653.41
2017-06-24T19:01:06.516Z,100654.39
2017-06-24T19:03:32.855Z,100644.27
2017-06-24T19:05:59.194Z,100636.27
2017-06-24T19:08:25.530Z,100648.75
2017-06-24T19:10:51.884Z,100645.72
2017-06-24T19:13:18.250Z,100625.94
2017-06-24T19:15:44.596Z,100633.58
2017-06-24T19:18:10.950Z,100637.45
2017-06-24T19:20:37.302Z,100634.52
2017-06-24T19:23:03.637Z,100631.69
2017-06-24T19:25:29.981Z,100631.55
2017-06-24T19:27:56.338Z,100634.38
2017-06-24T19:30:28.958Z,100629.23
2017-06-24T19:33:01.700Z,100631.67
2017-06-24T19:35:28.045Z,100626.75
2017-06-24T19:38:01.148Z,100631.44
2017-06-24T19:40:27.491Z,100631.84
2017-06-24T19:42:53.815Z,100635.03
2017-06-24T19:45:20.188Z,100633.84
2017-06-24T19:47:53.402Z,100624.53
2017-06-24T19:50:19.765Z,100629.36
2017-06-24T19:52:46.124Z,100633.13
2017-06-24T19:55:12.477Z,100636.09
2017-06-24T19:57:44.366Z,100639.88
2017-06-24T20:00:10.716Z,100637.34
2017-06-24T20:02:37.047Z,100631.69
2017-06-24T20:05:03.374Z,100630.68
2017-06-24T20:07:29.713Z,100629.28
2017-06-24T20:09:56.059Z,100628.70
2017-06-24T20:12:22.392Z,100626.23
2017-06-24T20:15:12.234Z,100621.13
2017-06-24T20:17:38.580Z,100627.20
2017-06-24T20:20:24.588Z,100621.94
2017-06-24T20:22:50.985Z,100624.91
2017-06-24T20:25:17.346Z,100628.94
2017-06-24T20:27:43.664Z,100630.20
2017-06-24T20:30:17.848Z,100632.67
2017-06-24T20:32:50.915Z,100631.91
2017-06-24T20:35:23.736Z,100632.73
2017-06-24T20:37:56.530Z,100634.41
2017-06-24T20:40:30.506Z,100631.97
2017-06-24T20:43:03.460Z,100631.64
2017-06-24T20:45:37.920Z,100631.07
2017-06-24T20:48:12.017Z,100637.94
2017-06-24T20:50:44.822Z,100639.75
2017-06-24T20:56:04.486Z,100640.69
2017-06-24T20:58:38.436Z,100639.20
2017-06-24T21:01:11.346Z,100633.58
2017-06-24T21:03:38.229Z,100633.46
2017-06-24T21:06:12.033Z,100626.85
2017-06-24T21:08:45.451Z,100630.75
2017-06-24T21:11:18.738Z,100625.69
2017-06-24T21:13:51.782Z,100623.36
2017-06-24T21:16:25.414Z,100631.46
2017-06-24T21:18:51.790Z,100629.34
2017-06-24T21:21:18.115Z,100627.95
2017-06-24T21:23:52.122Z,100626.75
2017-06-24T21:26:18.438Z,100629.50
2017-06-24T21:28:44.824Z,100630.56
2017-06-24T21:31:11.135Z,100626.03
2017-06-24T21:33:37.861Z,100622.58
2017-06-24T21:36:11.524Z,100617.22
2017-06-24T21:38:42.959Z,100615.19
2017-06-24T21:41:09.305Z,100608.58
2017-06-24T21:43:35.651Z,100612.63
2017-06-24T21:46:02.317Z,100615.95
2017-06-24T21:48:28.677Z,100610.10
2017-06-24T21:50:55.037Z,100609.55
2017-06-24T21:53:21.473Z,100604.58
2017-06-24T21:55:47.810Z,100594.27
2017-06-24T21:58:14.172Z,100597.62
2017-06-24T22:00:40.530Z,100591.50
2017-06-24T22:03:06.879Z,100590.67
2017-06-24T22:05:33.268Z,100592.72
2017-06-24T22:07:59.621Z,100590.43
2017-06-24T22:10:25.985Z,100593.37
2017-06-24T22:12:52.715Z,100590.19
2017-06-24T22:15:19.043Z,100577.17
2017-06-24T22:17:45.474Z,100575.42
2017-06-24T22:20:11.821Z,100574.28
2017-06-24T22:22:38.188Z,100575.89
2017-06-24T22:25:04.527Z,100571.69
2017-06-24T22:27:30.921Z,100573.10
2017-06-24T22:29:57.357Z,100571.59
2017-06-24T22:32:23.734Z,100569.48
2017-06-24T22:34:50.118Z,100564.17
2017-06-24T22:37:20.466Z,100553.81
2017-06-24T22:39:46.810Z,100552.22
2017-06-24T22:42:13.185Z,100539.23
2017-06-24T22:47:39.321Z,100536.27
2017-06-24T22:50:13.002Z,100524.89
2017-06-24T22:52:46.026Z,100529.44
2017-06-24T22:55:18.806Z,100536.17
2017-06-24T22:57:52.355Z,100526.94
2017-06-24T23:00:26.091Z,100525.48
2017-06-24T23:02:59.293Z,100523.61
2017-06-24T23:05:32.570Z,100518.48
2017-06-24T23:08:04.899Z,100514.07
2017-06-24T23:10:37.673Z,100516.38
2017-06-24T23:13:07.682Z,100514.64
2017-06-24T23:15:40.011Z,100510.61
2017-06-24T23:18:13.725Z,100511.08
2017-06-24T23:20:46.657Z,100512.81
2017-06-24T23:23:19.212Z,100511.39
2017-06-24T23:28:54.646Z,100506.74
2017-06-24T23:31:27.773Z,100507.55
2017-06-24T23:34:02.350Z,100504.30
2017-06-24T23:36:35.717Z,100501.42
2017-06-24T23:39:23.258Z,100499.03
2017-06-24T23:41:56.464Z,100493.16
2017-06-24T23:44:29.861Z,100502.87
2017-06-24T23:47:02.852Z,100498.18
2017-06-24T23:49:37.076Z,100501.70
2017-06-24T23:55:12.235Z,100494.22
2017-06-24T23:57:45.193Z,100496.48
